Time;durP1;ratioP1;P1;durP2;ratioP2;P2;SDS_P1;SDS_P2;PMS_P1;PMS_P2;Temp;Humidity;BMP_temperature;BMP_pressure;BME280_temperature;BME280_humidity;BME280_pressure;Samples;Min_cycle;Max_cycle;Signal;HPM_P1;HPM_P2
2023/09/29 00:02:03;;;;;;;;;;;;;;;15.66;100.00;101496.66;4920225;29;20006;-96
2023/09/29 00:04:31;;;;;;;;;;;;;;;15.69;99.95;101499.31;4918584;29;20273;-96
2023/09/29 00:06:56;;;;;;;;;;;;;;;15.68;99.20;101499.28;4919655;29;19923;-96
2023/09/29 00:09:24;;;;;;;;;;;;;;;15.68;100.00;101494.03;4936434;29;19942;-96
2023/09/29 00:11:52;;;;;;;;;;;;;;;15.69;100.00;101490.56;4936308;29;19919;-96
2023/09/29 00:14:17;;;;;;;;;;;;;;;15.70;100.00;101498.44;4936158;29;20024;-96
2023/09/29 00:16:42;;;;;;;;;;;;;;;15.71;100.00;101500.19;4936237;29;19946;-96
2023/09/29 00:19:10;;;;;;;;;;;;;;;15.71;100.00;101489.69;4936107;29;19939;-96
2023/09/29 00:21:39;;;;;;;;;;;;;;;15.74;100.00;101495.00;4934647;29;19915;-96
2023/09/29 00:24:06;;;;;;;;;;;;;;;15.76;100.00;101495.91;4916861;29;19919;-96
2023/09/29 00:26:32;;;;;;;;;;;;;;;15.78;100.00;101496.81;4916903;29;20348;-96
2023/09/29 00:28:59;;;;;;;;;;;;;;;15.80;100.00;101492.47;4917107;29;19915;-96
2023/09/29 00:31:24;;;;;;;;;;;;;;;15.83;100.00;101494.28;4917085;29;19915;-96
2023/09/29 00:34:03;;;;;;;;;;;;;;;15.86;100.00;101496.03;4916924;29;19922;-96
2023/09/29 00:36:28;;;;;;;;;;;;;;;15.90;100.00;101493.50;4903604;29;19922;-96
2023/09/29 00:38:54;;;;;;;;;;;;;;;15.93;100.00;101496.16;4935912;29;19973;-96
2023/09/29 00:41:22;;;;;;;;;;;;;;;15.96;100.00;101484.75;4936341;29;19914;-96
2023/09/29 00:43:50;;;;;;;;;;;;;;;15.96;100.00;101480.41;4935420;29;19915;-95
2023/09/29 00:46:15;;;;;;;;;;;;;;;16.01;100.00;101485.72;4935641;29;19922;-96
2023/09/29 00:48:49;;;;;;;;;;;;;;;16.03;100.00;101489.22;4935520;29;19915;-96
2023/09/29 00:51:15;;;;;;;;;;;;;;;16.06;100.00;101488.38;4934918;29;19919;-96
2023/09/29 00:53:40;;;;;;;;;;;;;;;16.06;100.00;101470.88;4935561;29;19919;-96
2023/09/29 00:56:12;;;;;;;;;;;;;;;16.08;100.00;101469.16;4935559;29;20443;-96
2023/09/29 00:58:40;;;;;;;;;;;;;;;16.11;100.00;101473.56;4935556;29;19915;-96
2023/09/29 01:01:11;;;;;;;;;;;;;;;16.12;100.00;101481.47;4935518;29;19978;-96
2023/09/29 01:03:37;;;;;;;;;;;;;;;16.15;100.00;101470.09;4935350;29;19939;-96
2023/09/29 01:06:03;;;;;;;;;;;;;;;16.16;100.00;101475.38;4934629;29;19923;-96
2023/09/29 01:08:43;;;;;;;;;;;;;;;16.19;100.00;101468.38;4935460;29;19923;-96
2023/09/29 01:11:09;;;;;;;;;;;;;;;16.20;100.00;101468.38;4936857;29;19915;-96
2023/09/29 01:13:40;;;;;;;;;;;;;;;16.22;100.00;101465.78;4939021;29;19915;-96
2023/09/29 01:16:13;;;;;;;;;;;;;;;16.22;100.00;101456.16;4939563;29;19919;-96
2023/09/29 01:18:43;;;;;;;;;;;;;;;16.24;100.00;101464.94;4939337;29;20368;-96
2023/09/29 01:21:08;;;;;;;;;;;;;;;16.25;100.00;101456.19;4939130;29;20045;-96
2023/09/29 01:23:39;;;;;;;;;;;;;;;16.26;100.00;101454.41;4938580;29;20410;-96
2023/09/29 01:26:08;;;;;;;;;;;;;;;16.26;100.00;101449.16;4939169;29;19926;-96
2023/09/29 01:28:33;;;;;;;;;;;;;;;16.26;100.00;101450.03;4938818;29;19915;-96
2023/09/29 01:31:04;;;;;;;;;;;;;;;16.27;100.00;101437.78;4939370;29;19914;-96
2023/09/29 01:33:32;;;;;;;;;;;;;;;16.29;100.00;101441.31;4939011;29;19938;-96
2023/09/29 01:36:03;;;;;;;;;;;;;;;16.30;100.00;101438.69;4939125;29;19942;-96
2023/09/29 01:38:28;;;;;;;;;;;;;;;16.31;100.00;101434.31;4938402;29;19921;-96
2023/09/29 01:40:55;;;;;;;;;;;;;;;16.32;100.00;101436.06;4939142;29;19993;-96
2023/09/29 01:43:23;;;;;;;;;;;;;;;16.31;100.00;101429.06;4938931;29;19982;-96
2023/09/29 01:45:48;;;;;;;;;;;;;;;16.32;100.00;101425.53;4938914;29;19967;-96
2023/09/29 01:48:14;;;;;;;;;;;;;;;16.33;100.00;101429.94;4938260;29;19919;-96
2023/09/29 01:50:48;;;;;;;;;;;;;;;16.34;100.00;101431.72;4938624;29;19915;-96
2023/09/29 01:53:14;;;;;;;;;;;;;;;16.36;100.00;101431.72;4940779;29;19954;-96
2023/09/29 01:55:42;;;;;;;;;;;;;;;16.39;100.00;101418.59;4921855;29;19969;-96
2023/09/29 01:58:15;;;;;;;;;;;;;;;16.41;100.00;101408.97;4938411;29;19915;-96
2023/09/29 02:00:42;;;;;;;;;;;;;;;16.43;100.00;101418.63;4919311;29;19919;-96
2023/09/29 02:03:11;;;;;;;;;;;;;;;16.44;100.00;101415.16;4919337;29;19915;-96
2023/09/29 02:05:37;;;;;;;;;;;;;;;16.46;100.00;101413.41;4919605;29;19915;-96
2023/09/29 02:08:05;;;;;;;;;;;;;;;16.47;100.00;101399.38;4919509;29;20010;-96
2023/09/29 02:10:35;;;;;;;;;;;;;;;16.49;100.00;101410.78;4933225;29;19915;-96
2023/09/29 02:13:04;;;;;;;;;;;;;;;16.51;100.00;101403.81;4922384;29;19937;-96
2023/09/29 02:15:35;;;;;;;;;;;;;;;16.54;100.00;101402.06;4922159;29;20311;-96
2023/09/29 02:18:01;;;;;;;;;;;;;;;16.52;100.00;101410.84;4921990;29;19915;-96
2023/09/29 02:20:30;;;;;;;;;;;;;;;16.54;99.83;101412.59;4922410;29;19921;-96
2023/09/29 02:22:56;;;;;;;;;;;;;;;16.53;100.00;101403.81;4922500;29;19921;-95
2023/09/29 02:25:25;;;;;;;;;;;;;;;16.55;99.74;101402.06;4921104;29;19914;-96
2023/09/29 02:27:59;;;;;;;;;;;;;;;16.55;99.29;101402.06;4937531;29;19922;-96
2023/09/29 02:30:32;;;;;;;;;;;;;;;16.59;99.02;101395.09;4937388;29;20011;-96
2023/09/29 02:32:58;;;;;;;;;;;;;;;16.60;98.94;101392.47;4936542;29;19923;-96
2023/09/29 02:35:26;;;;;;;;;;;;;;;16.61;98.51;101395.97;4936018;29;19974;-96
2023/09/29 02:37:57;;;;;;;;;;;;;;;16.62;98.37;101385.47;4937572;29;19969;-96
2023/09/29 02:40:23;;;;;;;;;;;;;;;16.63;98.63;101389.00;4938284;29;19919;-96
2023/09/29 02:42:51;;;;;;;;;;;;;;;16.64;98.57;101377.56;4938580;29;19915;-96
2023/09/29 02:45:20;;;;;;;;;;;;;;;16.66;98.50;101379.34;4938329;29;19915;-96
2023/09/29 02:47:48;;;;;;;;;;;;;;;16.67;98.22;101378.50;4937848;29;20005;-95
2023/09/29 02:50:13;;;;;;;;;;;;;;;16.68;98.92;101366.22;4937319;29;19947;-96
2023/09/29 02:52:39;;;;;;;;;;;;;;;16.70;98.42;101369.75;4937683;29;19914;-96
2023/09/29 02:55:07;;;;;;;;;;;;;;;16.70;98.65;101375.00;4937221;29;19947;-96
2023/09/29 02:57:33;;;;;;;;;;;;;;;16.70;98.72;101361.84;4937539;29;19962;-96
2023/09/29 02:59:58;;;;;;;;;;;;;;;16.73;98.53;101366.22;4937666;29;19921;-96
2023/09/29 03:02:27;;;;;;;;;;;;;;;16.73;98.40;101359.25;4938027;29;19962;-96
2023/09/29 03:04:55;;;;;;;;;;;;;;;16.73;99.10;101351.34;4937734;29;19943;-96
2023/09/29 03:07:23;;;;;;;;;;;;;;;16.73;98.75;101356.59;4921429;29;19923;-96
2023/09/29 03:09:51;;;;;;;;;;;;;;;16.73;99.00;101358.34;4921259;29;19961;-96
2023/09/29 03:12:26;;;;;;;;;;;;;;;16.73;99.21;101355.72;4921180;29;19915;-96
2023/09/29 03:14:54;;;;;;;;;;;;;;;16.75;98.90;101351.34;4921765;29;20432;-96
2023/09/29 03:17:21;;;;;;;;;;;;;;;16.74;98.92;101353.09;4921520;29;19961;-96
2023/09/29 03:19:49;;;;;;;;;;;;;;;16.75;99.64;101346.09;4920544;29;19915;-96
2023/09/29 03:22:18;;;;;;;;;;;;;;;16.77;99.93;101350.50;4927445;29;19915;-96
2023/09/29 03:24:44;;;;;;;;;;;;;;;16.79;99.67;101351.38;4902499;29;19922;-96
2023/09/29 03:27:12;;;;;;;;;;;;;;;16.80;99.49;101337.34;4917875;29;19915;-96
2023/09/29 03:29:37;;;;;;;;;;;;;;;16.81;99.76;101336.47;4902515;29;19922;-96
2023/09/29 03:32:23;;;;;;;;;;;;;;;16.80;99.67;101329.47;4917778;29;19915;-96
2023/09/29 03:34:49;;;;;;;;;;;;;;;16.79;99.49;101319.78;4917868;29;19919;-96
2023/09/29 03:37:18;;;;;;;;;;;;;;;16.81;100.00;101318.03;4925032;29;19926;-96
2023/09/29 03:39:52;;;;;;;;;;;;;;;16.80;99.74;101316.28;4937462;29;20421;-96
2023/09/29 03:42:20;;;;;;;;;;;;;;;16.79;100.00;101313.66;4936540;29;19921;-96
2023/09/29 03:44:48;;;;;;;;;;;;;;;16.79;100.00;101300.50;4936661;29;20021;-96
2023/09/29 03:47:17;;;;;;;;;;;;;;;16.80;100.00;101295.25;4936807;29;19914;-96
2023/09/29 03:49:48;;;;;;;;;;;;;;;16.81;100.00;101298.75;4936564;29;19926;-96
2023/09/29 03:52:13;;;;;;;;;;;;;;;16.82;100.00;101293.47;4917470;29;19924;-96
2023/09/29 03:54:41;;;;;;;;;;;;;;;16.82;100.00;101292.63;4917646;29;19919;-96
2023/09/29 03:57:27;;;;;;;;;;;;;;;16.81;100.00;101294.34;4917227;29;20377;-96
2023/09/29 03:59:53;;;;;;;;;;;;;;;16.81;100.00;101294.34;4901997;29;20007;-96
2023/09/29 04:02:26;;;;;;;;;;;;;;;16.80;100.00;101289.97;4917434;29;20349;-96
2023/09/29 04:04:54;;;;;;;;;;;;;;;16.82;100.00;101289.97;4917364;29;19915;-96
2023/09/29 04:07:19;;;;;;;;;;;;;;;16.78;100.00;101293.47;4922603;29;19993;-96
2023/09/29 04:09:51;;;;;;;;;;;;;;;16.77;100.00;101281.16;4936279;29;20372;-96
2023/09/29 04:12:18;;;;;;;;;;;;;;;16.78;100.00;101275.03;4935118;29;19919;-96
2023/09/29 04:14:46;;;;;;;;;;;;;;;16.79;100.00;101282.06;4935126;29;19927;-96
2023/09/29 04:17:14;;;;;;;;;;;;;;;16.79;100.00;101284.72;4936414;29;19918;-96
2023/09/29 04:19:46;;;;;;;;;;;;;;;16.84;100.00;101294.38;4935710;29;20035;-96
2023/09/29 04:22:11;;;;;;;;;;;;;;;16.83;100.00;101290.00;4935630;29;19915;-96
2023/09/29 04:24:37;;;;;;;;;;;;;;;16.83;100.00;101276.84;4936024;29;20379;-96
2023/09/29 04:27:03;;;;;;;;;;;;;;;16.82;100.00;101272.44;4935572;29;19938;-96
2023/09/29 04:29:28;;;;;;;;;;;;;;;16.82;100.00;101269.81;4936022;29;19921;-96
2023/09/29 04:31:56;;;;;;;;;;;;;;;16.81;100.00;101262.75;4936145;29;19919;-96
2023/09/29 04:34:24;;;;;;;;;;;;;;;16.78;100.00;101260.13;4936366;29;19918;-96
2023/09/29 04:36:53;;;;;;;;;;;;;;;16.80;100.00;101266.28;4936544;29;20022;-96
2023/09/29 04:39:19;;;;;;;;;;;;;;;16.81;100.00;101269.78;4935921;29;19958;-96
2023/09/29 04:41:44;;;;;;;;;;;;;;;16.82;100.00;101269.81;4935728;29;19922;-96
2023/09/29 04:44:12;;;;;;;;;;;;;;;16.82;100.00;101264.53;4918246;29;19918;-96
2023/09/29 04:46:41;;;;;;;;;;;;;;;16.85;100.00;101250.50;4920909;29;19941;-96
2023/09/29 04:49:07;;;;;;;;;;;;;;;16.86;100.00;101255.78;4920879;29;19922;-96
2023/09/29 04:51:33;;;;;;;;;;;;;;;16.89;100.00;101251.41;4921075;29;19915;-96
2023/09/29 04:54:02;;;;;;;;;;;;;;;16.90;100.00;101263.72;4920897;29;19919;-96
2023/09/29 04:56:27;;;;;;;;;;;;;;;16.93;100.00;101261.09;4921202;29;20468;-96
2023/09/29 04:58:57;;;;;;;;;;;;;;;16.95;100.00;101264.63;4936485;29;19922;-96
2023/09/29 05:01:27;;;;;;;;;;;;;;;16.96;100.00;101261.09;4939043;29;19914;-96
2023/09/29 05:03:52;;;;;;;;;;;;;;;16.98;100.00;101264.66;4939706;29;19915;-96
2023/09/29 05:06:28;;;;;;;;;;;;;;;17.00;100.00;101260.25;4939194;29;19914;-96
2023/09/29 05:09:02;;;;;;;;;;;;;;;17.01;100.00;101256.75;4919212;29;19934;-96
2023/09/29 05:11:32;;;;;;;;;;;;;;;17.04;100.00;101256.75;4920131;29;19920;-96
2023/09/29 05:14:00;;;;;;;;;;;;;;;17.07;100.00;101251.50;4920976;29;20330;-96
2023/09/29 05:16:25;;;;;;;;;;;;;;;17.09;100.00;101249.78;4920650;29;19919;-96
2023/09/29 05:18:57;;;;;;;;;;;;;;;17.09;100.00;101246.22;4920505;29;19987;-96
2023/09/29 05:21:29;;;;;;;;;;;;;;;17.10;100.00;101234.84;4920254;29;19966;-96
2023/09/29 05:24:19;;;;;;;;;;;;;;;17.11;100.00;101236.59;4915485;29;19958;-96
2023/09/29 05:26:47;;;;;;;;;;;;;;;17.14;100.00;101233.97;4901684;29;19939;-96
2023/09/29 05:29:15;;;;;;;;;;;;;;;17.14;100.00;101237.47;4901608;29;19998;-96
2023/09/29 05:31:47;;;;;;;;;;;;;;;17.15;100.00;101233.97;4901747;29;19965;-96
2023/09/29 05:34:23;;;;;;;;;;;;;;;17.16;100.00;101238.38;4901996;29;19943;-96
2023/09/29 05:36:48;;;;;;;;;;;;;;;17.18;100.00;101231.34;4902361;29;19915;-96
2023/09/29 05:39:16;;;;;;;;;;;;;;;17.19;100.00;101233.13;4910068;29;20340;-96
2023/09/29 05:41:41;;;;;;;;;;;;;;;17.18;100.00;101227.84;4904547;29;19919;-96
2023/09/29 05:44:11;;;;;;;;;;;;;;;17.19;100.00;101241.03;4903079;29;19919;-96
2023/09/29 05:46:39;;;;;;;;;;;;;;;17.20;100.00;101237.50;4903674;29;19919;-96
2023/09/29 05:49:09;;;;;;;;;;;;;;;17.24;100.00;101234.88;4902375;29;19951;-96
2023/09/29 05:51:35;;;;;;;;;;;;;;;17.27;100.00;101237.53;4902990;29;19994;-96
2023/09/29 05:54:02;;;;;;;;;;;;;;;17.30;100.00;101240.16;4893951;29;19996;-96
2023/09/29 05:56:29;;;;;;;;;;;;;;;17.33;100.00;101241.03;4906211;29;19927;-96
2023/09/29 05:58:57;;;;;;;;;;;;;;;17.35;100.00;101241.03;4901306;29;19923;-96
2023/09/29 06:01:30;;;;;;;;;;;;;;;17.36;100.00;101241.03;4899703;29;19919;-96
2023/09/29 06:04:00;;;;;;;;;;;;;;;17.37;100.00;101239.28;4900786;29;19994;-96
2023/09/29 06:06:26;;;;;;;;;;;;;;;17.40;100.00;101241.94;4901694;29;19954;-96
2023/09/29 06:08:51;;;;;;;;;;;;;;;17.40;100.00;101236.66;4919673;29;19954;-96
2023/09/29 06:11:17;;;;;;;;;;;;;;;17.42;100.00;101232.25;4923245;29;19914;-96
2023/09/29 06:13:42;;;;;;;;;;;;;;;17.45;100.00;101245.47;4938608;29;19948;-96
2023/09/29 06:16:08;;;;;;;;;;;;;;;17.48;100.00;101265.66;4937993;29;19961;-96
2023/09/29 06:18:39;;;;;;;;;;;;;;;17.49;100.00;101264.78;4937941;29;19965;-96
2023/09/29 06:21:04;;;;;;;;;;;;;;;17.50;100.00;101264.78;4938051;29;19916;-96
2023/09/29 06:26:23;;;;;;;;;;;;;;;17.57;100.00;101260.41;4939109;29;20379;-96
2023/09/29 06:28:59;;;;;;;;;;;;;;;17.60;100.00;101246.34;4921760;29;20387;-96
2023/09/29 06:31:28;;;;;;;;;;;;;;;17.63;100.00;101249.00;4911207;29;19923;-96
2023/09/29 06:33:56;;;;;;;;;;;;;;;17.66;100.00;101244.59;4919338;29;19921;-96
2023/09/29 06:36:27;;;;;;;;;;;;;;;17.69;100.00;101249.88;4918757;29;19934;-96
2023/09/29 06:38:52;;;;;;;;;;;;;;;17.73;100.00;101242.84;4919243;29;20384;-96
2023/09/29 06:41:18;;;;;;;;;;;;;;;17.76;100.00;101250.75;4919178;29;19967;-96
2023/09/29 06:44:12;;;;;;;;;;;;;;;17.78;100.00;101259.53;4918855;29;21765;-96
2023/09/29 06:46:38;;;;;;;;;;;;;;;17.82;100.00;101265.69;4932696;29;19990;-96
2023/09/29 06:49:08;;;;;;;;;;;;;;;17.88;100.00;101265.69;4937960;29;19946;-96
2023/09/29 06:51:34;;;;;;;;;;;;;;;17.90;100.00;101263.94;4938111;29;20377;-96
2023/09/29 06:53:59;;;;;;;;;;;;;;;17.92;100.00;101266.63;4937673;29;19922;-96
2023/09/29 06:56:27;;;;;;;;;;;;;;;17.95;100.00;101263.97;4937332;29;19969;-96
2023/09/29 06:58:54;;;;;;;;;;;;;;;17.97;100.00;101263.06;4937117;29;19925;-96
2023/09/29 07:01:20;;;;;;;;;;;;;;;18.01;100.00;101267.47;4937278;29;19923;-96
2023/09/29 07:03:48;;;;;;;;;;;;;;;18.05;100.00;101271.00;4937545;29;19919;-96
2023/09/29 07:06:15;;;;;;;;;;;;;;;18.10;100.00;101277.13;4937228;29;20361;-96
2023/09/29 07:08:40;;;;;;;;;;;;;;;18.13;100.00;101277.13;4936246;29;19942;-96
2023/09/29 07:11:19;;;;;;;;;;;;;;;18.17;100.00;101273.63;4937810;29;19996;-96
2023/09/29 07:13:44;;;;;;;;;;;;;;;18.19;100.00;101277.16;4937323;29;19915;-96
2023/09/29 07:16:20;;;;;;;;;;;;;;;18.22;100.00;101284.19;4936585;29;19926;-96
2023/09/29 07:18:47;;;;;;;;;;;;;;;18.25;100.00;101274.50;4937444;29;19942;-96
2023/09/29 07:21:14;;;;;;;;;;;;;;;18.28;100.00;101270.09;4936611;29;19923;-96
2023/09/29 07:23:41;;;;;;;;;;;;;;;18.30;100.00;101276.25;4937524;29;20377;-96
2023/09/29 07:26:09;;;;;;;;;;;;;;;18.34;100.00;101278.88;4937211;29;19919;-96
2023/09/29 07:28:37;;;;;;;;;;;;;;;18.38;100.00;101282.41;4937012;29;19922;-96
2023/09/29 07:31:02;;;;;;;;;;;;;;;18.41;100.00;101283.25;4937066;29;19993;-96
2023/09/29 07:33:30;;;;;;;;;;;;;;;18.47;100.00;101287.66;4937127;29;19919;-96
2023/09/29 07:35:55;;;;;;;;;;;;;;;18.54;100.00;101273.56;4936271;29;19918;-96
2023/09/29 07:38:21;;;;;;;;;;;;;;;18.59;100.00;101281.47;4921704;29;20369;-96
2023/09/29 07:40:46;;;;;;;;;;;;;;;18.66;100.00;101282.34;4921176;29;20307;-96
2023/09/29 07:43:15;;;;;;;;;;;;;;;18.72;100.00;101271.75;4920801;29;19965;-96
2023/09/29 07:45:44;;;;;;;;;;;;;;;18.79;100.00;101281.41;4920958;29;19915;-96
2023/09/29 07:48:16;;;;;;;;;;;;;;;18.87;100.00;101284.94;4920602;29;19915;-96
2023/09/29 07:50:51;;;;;;;;;;;;;;;18.94;100.00;101286.69;4920417;29;19915;-96
2023/09/29 07:53:16;;;;;;;;;;;;;;;19.01;100.00;101284.88;4920834;29;19957;-96
2023/09/29 07:55:43;;;;;;;;;;;;;;;19.13;100.00;101289.22;4919994;29;19981;-96
2023/09/29 07:58:08;;;;;;;;;;;;;;;19.19;100.00;101294.50;4921120;29;20383;-96
2023/09/29 08:00:33;;;;;;;;;;;;;;;19.24;100.00;101295.31;4920942;29;19915;-96
2023/09/29 08:02:59;;;;;;;;;;;;;;;19.28;100.00;101288.28;4920659;29;19970;-96
2023/09/29 08:05:25;;;;;;;;;;;;;;;19.29;100.00;101288.28;4916949;29;19966;-96
2023/09/29 08:07:53;;;;;;;;;;;;;;;19.33;100.00;101302.31;4902080;29;20087;-96
2023/09/29 08:10:18;;;;;;;;;;;;;;;19.36;100.00;101306.72;4901330;29;19919;-96
2023/09/29 08:12:44;;;;;;;;;;;;;;;19.40;100.00;101311.09;4901515;29;19915;-96
2023/09/29 08:15:15;;;;;;;;;;;;;;;19.45;100.00;101311.94;4900793;29;20022;-96
2023/09/29 08:17:41;;;;;;;;;;;;;;;19.49;100.00;101308.41;4900919;29;19972;-96
2023/09/29 08:20:09;;;;;;;;;;;;;;;19.51;100.00;101319.88;4916880;29;19915;-96
2023/09/29 08:22:35;;;;;;;;;;;;;;;19.52;100.00;101320.72;4920763;29;19954;-96
2023/09/29 08:25:03;;;;;;;;;;;;;;;19.61;100.00;101321.56;4919725;29;20420;-96
2023/09/29 08:27:31;;;;;;;;;;;;;;;19.62;100.00;101325.97;4919680;29;19914;-96
2023/09/29 08:29:59;;;;;;;;;;;;;;;19.77;100.00;101327.63;4919999;29;19914;-96
2023/09/29 08:32:35;;;;;;;;;;;;;;;19.76;100.00;101338.22;4919537;29;19991;-96
2023/09/29 08:35:00;;;;;;;;;;;;;;;19.78;100.00;101332.06;4916724;29;19974;-96
2023/09/29 08:37:32;;;;;;;;;;;;;;;19.92;97.92;101334.59;4916849;29;19919;-96
2023/09/29 08:40:09;;;;;;;;;;;;;;;19.85;99.17;101337.31;4917065;29;19911;-96
2023/09/29 08:42:55;;;;;;;;;;;;;;;19.85;98.81;101354.03;4916553;29;19999;-96
2023/09/29 08:45:20;;;;;;;;;;;;;;;19.88;98.97;101345.22;4916923;29;20002;-96
2023/09/29 08:47:53;;;;;;;;;;;;;;;19.91;98.50;101353.13;4917234;29;20388;-96
2023/09/29 08:50:22;;;;;;;;;;;;;;;20.03;97.50;101345.13;4919485;29;20391;-96
2023/09/29 08:52:49;;;;;;;;;;;;;;;19.99;98.49;101361.88;4935577;29;20353;-96
2023/09/29 08:55:20;;;;;;;;;;;;;;;20.02;97.99;101356.56;4935434;29;19919;-96
2023/09/29 08:57:47;;;;;;;;;;;;;;;20.03;98.16;101357.44;4935443;29;19918;-96
2023/09/29 09:00:15;;;;;;;;;;;;;;;20.07;97.58;101353.88;4935367;29;20013;-96
2023/09/29 09:03:02;;;;;;;;;;;;;;;20.10;98.18;101359.16;4934309;29;19915;-96
2023/09/29 09:05:35;;;;;;;;;;;;;;;20.21;97.57;101354.66;4916197;29;19926;-96
2023/09/29 09:08:09;;;;;;;;;;;;;;;20.23;97.20;101363.44;4915345;29;19923;-96
2023/09/29 09:10:43;;;;;;;;;;;;;;;20.24;96.61;101356.41;4916573;29;19919;-96
2023/09/29 09:13:09;;;;;;;;;;;;;;;20.25;97.45;101366.97;4917008;29;19986;-96
2023/09/29 09:15:35;;;;;;;;;;;;;;;20.26;96.98;101371.38;4917455;29;20031;-96
2023/09/29 09:18:00;;;;;;;;;;;;;;;20.30;96.09;101367.78;4920234;29;19998;-96
2023/09/29 09:20:33;;;;;;;;;;;;;;;20.35;96.92;101375.72;4935978;29;19911;-96
2023/09/29 09:23:02;;;;;;;;;;;;;;;20.36;96.48;101372.16;4936575;29;20067;-96
2023/09/29 09:25:35;;;;;;;;;;;;;;;20.31;96.24;101380.16;4935898;29;19915;-96
2023/09/29 09:28:04;;;;;;;;;;;;;;;20.23;97.34;101384.63;4935843;29;19915;-96
2023/09/29 09:30:36;;;;;;;;;;;;;;;20.17;98.31;101383.81;4935239;29;20377;-96
2023/09/29 09:33:07;;;;;;;;;;;;;;;20.14;98.23;101392.63;4938950;29;19915;-96
2023/09/29 09:35:36;;;;;;;;;;;;;;;20.08;98.73;101387.41;4938855;29;19987;-96
2023/09/29 09:38:02;;;;;;;;;;;;;;;20.10;98.72;101390.91;4939506;29;19957;-96
2023/09/29 09:40:34;;;;;;;;;;;;;;;20.26;96.22;101389.91;4941132;29;19915;-96
2023/09/29 09:43:10;;;;;;;;;;;;;;;20.17;96.30;101392.59;4938266;29;19918;-96
2023/09/29 09:45:49;;;;;;;;;;;;;;;20.14;96.78;101404.09;4940771;29;19914;-96
2023/09/29 09:48:18;;;;;;;;;;;;;;;20.23;96.02;101399.63;4939251;29;20360;-96
2023/09/29 09:50:49;;;;;;;;;;;;;;;20.14;96.19;101404.09;4939148;29;20287;-96
2023/09/29 09:53:16;;;;;;;;;;;;;;;20.12;96.80;101405.00;4938933;29;19998;-96
2023/09/29 09:55:50;;;;;;;;;;;;;;;20.12;97.25;101405.00;4937782;29;20001;-96
2023/09/29 09:58:22;;;;;;;;;;;;;;;20.12;98.08;101400.59;4937732;29;19980;-96
2023/09/29 10:00:54;;;;;;;;;;;;;;;20.15;97.64;101405.84;4938694;29;19919;-96
2023/09/29 10:03:29;;;;;;;;;;;;;;;20.21;97.21;101422.59;4938852;29;19915;-96
2023/09/29 10:06:05;;;;;;;;;;;;;;;20.21;96.96;101420.81;4938251;29;19965;-97
2023/09/29 10:08:37;;;;;;;;;;;;;;;20.22;97.59;101417.28;4938515;29;19923;-96
2023/09/29 10:11:13;;;;;;;;;;;;;;;20.23;97.21;101426.09;4938777;29;19919;-96
2023/09/29 10:13:40;;;;;;;;;;;;;;;20.24;97.50;101419.91;4938285;29;19915;-96
2023/09/29 10:16:22;;;;;;;;;;;;;;;20.29;97.16;101423.38;4925810;29;19919;-96
2023/09/29 10:19:06;;;;;;;;;;;;;;;20.29;96.69;101423.38;4919245;29;19975;-96
2023/09/29 10:21:50;;;;;;;;;;;;;;;20.24;96.75;101428.72;4919479;29;19922;-96
2023/09/29 10:24:30;;;;;;;;;;;;;;;20.32;95.54;101423.41;4930102;29;20005;-96
2023/09/29 10:27:11;;;;;;;;;;;;;;;20.15;97.40;101421.72;4921786;29;19915;-96
2023/09/29 10:29:38;;;;;;;;;;;;;;;20.13;97.06;101425.25;4938095;29;19946;-96
2023/09/29 10:32:30;;;;;;;;;;;;;;;20.12;97.58;101427.03;4938083;29;19922;-96
2023/09/29 10:35:07;;;;;;;;;;;;;;;20.11;97.29;101427.06;4936437;29;20388;-96
2023/09/29 10:37:45;;;;;;;;;;;;;;;20.15;96.94;101429.66;4937159;29;20373;-96
2023/09/29 10:40:33;;;;;;;;;;;;;;;20.15;97.14;101444.69;4938079;29;19911;-96
2023/09/29 10:43:02;;;;;;;;;;;;;;;20.10;97.50;101444.72;4931300;29;19922;-96
2023/09/29 10:45:29;;;;;;;;;;;;;;;20.12;97.16;101431.47;4937468;29;20269;-96
2023/09/29 10:48:00;;;;;;;;;;;;;;;20.16;96.81;101449.09;4937849;29;19988;-96
2023/09/29 10:50:32;;;;;;;;;;;;;;;20.30;95.28;101452.50;4937790;29;19915;-96
2023/09/29 10:53:12;;;;;;;;;;;;;;;20.14;96.53;101445.56;4937041;29;19915;-96
2023/09/29 10:55:42;;;;;;;;;;;;;;;20.11;97.05;101450.88;4936640;29;19918;-96
2023/09/29 10:58:08;;;;;;;;;;;;;;;20.12;96.63;101444.69;4937502;29;20384;-96
2023/09/29 11:00:40;;;;;;;;;;;;;;;20.12;96.20;101461.44;4937736;29;19930;-96
2023/09/29 11:03:28;;;;;;;;;;;;;;;20.11;96.31;101466.75;4938372;29;19958;-96
2023/09/29 11:06:09;;;;;;;;;;;;;;;20.08;97.59;101461.47;4939426;29;19915;-96
2023/09/29 11:08:51;;;;;;;;;;;;;;;20.12;97.34;101468.50;4937445;29;19929;-96
2023/09/29 11:11:17;;;;;;;;;;;;;;;20.25;97.13;101464.03;4937554;29;19915;-96
2023/09/29 11:13:42;;;;;;;;;;;;;;;20.41;96.83;101465.66;4937675;29;19921;-96
2023/09/29 11:16:15;;;;;;;;;;;;;;;20.38;96.92;101470.97;4936900;29;19919;-96
2023/09/29 11:18:41;;;;;;;;;;;;;;;20.55;96.35;101457.63;4937669;29;19921;-96
2023/09/29 11:21:12;;;;;;;;;;;;;;;20.64;95.29;101467.25;4937799;29;19915;-96
2023/09/29 11:23:43;;;;;;;;;;;;;;;20.64;95.99;101472.56;4937421;29;19966;-96
2023/09/29 11:26:17;;;;;;;;;;;;;;;20.70;96.08;101477.81;4921867;29;19977;-96
2023/09/29 11:28:47;;;;;;;;;;;;;;;20.83;95.58;101468.88;4921566;29;19919;-96
2023/09/29 11:31:20;;;;;;;;;;;;;;;20.89;94.93;101477.69;4921683;29;19922;-96
2023/09/29 11:33:46;;;;;;;;;;;;;;;20.87;94.25;101480.34;4921505;29;19921;-96
2023/09/29 11:36:17;;;;;;;;;;;;;;;20.86;94.52;101483.88;4921236;29;19919;-96
2023/09/29 11:38:45;;;;;;;;;;;;;;;20.75;95.83;101506.91;4936799;29;19978;-96
2023/09/29 11:41:11;;;;;;;;;;;;;;;21.10;94.99;101492.47;4937878;29;19918;-96
2023/09/29 11:43:45;;;;;;;;;;;;;;;20.79;97.04;101490.97;4936700;29;19914;-96
2023/09/29 11:46:11;;;;;;;;;;;;;;;20.84;95.71;101501.53;4938315;29;19966;-96
2023/09/29 11:48:39;;;;;;;;;;;;;;;20.79;97.08;101496.28;4937504;29;19943;-96
2023/09/29 11:51:05;;;;;;;;;;;;;;;20.63;97.85;101498.13;4936336;29;19915;-96
2023/09/29 11:53:36;;;;;;;;;;;;;;;20.62;98.99;101504.34;4936307;29;20284;-96
2023/09/29 11:56:02;;;;;;;;;;;;;;;20.54;99.43;101505.25;4936043;29;20368;-96
2023/09/29 11:58:40;;;;;;;;;;;;;;;20.47;100.00;101507.97;4926340;29;19922;-96
2023/09/29 12:01:08;;;;;;;;;;;;;;;20.48;100.00;101511.50;4949852;29;19922;-96
2023/09/29 12:03:50;;;;;;;;;;;;;;;20.27;100.00;101507.22;4953030;28;19907;-96
2023/09/29 12:06:24;;;;;;;;;;;;;;;20.12;100.00;101501.13;4953111;29;19915;-96
2023/09/29 12:08:53;;;;;;;;;;;;;;;19.96;100.00;101502.97;4952107;29;19923;-96
2023/09/29 12:11:21;;;;;;;;;;;;;;;19.87;100.00;101507.41;4937000;29;19925;-96
2023/09/29 12:13:47;;;;;;;;;;;;;;;19.82;100.00;101517.16;4942767;29;19915;-96
2023/09/29 12:16:16;;;;;;;;;;;;;;;19.77;100.00;101519.78;4938980;29;20399;-96
2023/09/29 12:18:43;;;;;;;;;;;;;;;19.76;100.00;101531.25;4939897;29;19915;-96
2023/09/29 12:21:24;;;;;;;;;;;;;;;19.79;100.00;101542.72;4951009;29;19903;-96
2023/09/29 12:23:57;;;;;;;;;;;;;;;19.60;100.00;101549.78;4923779;29;19923;-96
2023/09/29 12:26:23;;;;;;;;;;;;;;;19.59;100.00;101557.72;4899651;29;20312;-96
2023/09/29 12:28:48;;;;;;;;;;;;;;;19.36;100.00;101555.13;4899712;29;19915;-96
2023/09/29 12:31:15;;;;;;;;;;;;;;;19.23;100.00;101555.16;4901651;29;19911;-96
2023/09/29 12:33:45;;;;;;;;;;;;;;;19.33;100.00;101568.34;4902110;29;19942;-96
2023/09/29 12:36:13;;;;;;;;;;;;;;;19.24;100.00;101578.03;4906848;29;19920;-96
2023/09/29 12:38:39;;;;;;;;;;;;;;;19.26;100.00;101585.97;4923860;29;20372;-96
2023/09/29 12:41:08;;;;;;;;;;;;;;;19.22;100.00;101590.38;4949948;29;19919;-96
2023/09/29 12:46:22;;;;;;;;;;;;;;;18.91;100.00;101606.19;4949454;29;19915;-96
2023/09/29 12:48:49;;;;;;;;;;;;;;;18.81;100.00;101614.94;4947789;29;20005;-96